sensor_id;sensor_type;location;lat;lon;timestamp;temperature;humidity
8008;DHT22;4049;49.468;11.200;2023-05-14T00:00:42;9.60;99.90
8008;DHT22;4049;49.468;11.200;2023-05-14T00:03:09;9.50;99.90
8008;DHT22;4049;49.468;11.200;2023-05-14T00:05:36;9.50;99.90
8008;DHT22;4049;49.468;11.200;2023-05-14T00:08:03;9.50;99.90
8008;DHT22;4049;49.468;11.200;2023-05-14T00:10:30;9.40;99.90
8008;DHT22;4049;49.468;11.200;2023-05-14T00:12:57;9.30;99.90
8008;DHT22;4049;49.468;11.200;2023-05-14T00:15:25;9.30;99.90
8008;DHT22;4049;49.468;11.200;2023-05-14T00:17:54;9.30;99.90
8008;DHT22;4049;49.468;11.200;2023-05-14T00:20:20;9.30;99.90
8008;DHT22;4049;49.468;11.200;2023-05-14T00:22:47;9.30;99.90
8008;DHT22;4049;49.468;11.200;2023-05-14T00:25:14;9.30;99.90
8008;DHT22;4049;49.468;11.200;2023-05-14T00:27:41;9.30;99.90
8008;DHT22;4049;49.468;11.200;2023-05-14T00:30:08;9.30;99.90
8008;DHT22;4049;49.468;11.200;2023-05-14T00:32:35;9.30;99.90
8008;DHT22;4049;49.468;11.200;2023-05-14T00:35:04;9.30;99.90
8008;DHT22;4049;49.468;11.200;2023-05-14T00:37:31;9.30;99.90
8008;DHT22;4049;49.468;11.200;2023-05-14T00:39:58;9.30;99.90
8008;DHT22;4049;49.468;11.200;2023-05-14T00:42:25;9.30;99.90
8008;DHT22;4049;49.468;11.200;2023-05-14T00:44:52;9.30;99.90
8008;DHT22;4049;49.468;11.200;2023-05-14T00:47:19;9.20;99.90
8008;DHT22;4049;49.468;11.200;2023-05-14T00:49:46;9.20;99.90
8008;DHT22;4049;49.468;11.200;2023-05-14T00:52:14;9.20;99.90
8008;DHT22;4049;49.468;11.200;2023-05-14T00:54:42;9.20;99.90
8008;DHT22;4049;49.468;11.200;2023-05-14T00:57:10;9.20;99.90
8008;DHT22;4049;49.468;11.200;2023-05-14T00:59:36;9.20;99.90
8008;DHT22;4049;49.468;11.200;2023-05-14T01:02:05;9.20;99.90
8008;DHT22;4049;49.468;11.200;2023-05-14T01:04:32;9.10;99.90
8008;DHT22;4049;49.468;11.200;2023-05-14T01:07:08;9.10;99.90
8008;DHT22;4049;49.468;11.200;2023-05-14T01:09:41;9.10;99.90
8008;DHT22;4049;49.468;11.200;2023-05-14T01:12:16;9.00;99.90
8008;DHT22;4049;49.468;11.200;2023-05-14T01:14:52;9.00;99.90
8008;DHT22;4049;49.468;11.200;2023-05-14T01:17:21;9.00;99.90
8008;DHT22;4049;49.468;11.200;2023-05-14T01:19:50;8.90;99.90
8008;DHT22;4049;49.468;11.200;2023-05-14T01:22:18;8.90;99.90
8008;DHT22;4049;49.468;11.200;2023-05-14T01:24:45;8.90;99.90
8008;DHT22;4049;49.468;11.200;2023-05-14T01:27:17;8.90;99.90
8008;DHT22;4049;49.468;11.200;2023-05-14T01:29:52;8.80;99.90
8008;DHT22;4049;49.468;11.200;2023-05-14T01:32:24;8.90;99.90
8008;DHT22;4049;49.468;11.200;2023-05-14T01:34:51;8.80;99.90
8008;DHT22;4049;49.468;11.200;2023-05-14T01:37:20;8.90;99.90
8008;DHT22;4049;49.468;11.200;2023-05-14T01:39:48;8.90;99.90
8008;DHT22;4049;49.468;11.200;2023-05-14T01:42:16;8.90;99.90
8008;DHT22;4049;49.468;11.200;2023-05-14T01:44:42;9.00;99.90
8008;DHT22;4049;49.468;11.200;2023-05-14T01:47:09;9.00;99.90
8008;DHT22;4049;49.468;11.200;2023-05-14T01:49:36;9.00;99.90
8008;DHT22;4049;49.468;11.200;2023-05-14T01:52:03;9.00;99.90
8008;DHT22;4049;49.468;11.200;2023-05-14T01:54:31;9.00;99.90
8008;DHT22;4049;49.468;11.200;2023-05-14T01:56:58;9.10;99.90
8008;DHT22;4049;49.468;11.200;2023-05-14T01:59:25;9.10;99.90
8008;DHT22;4049;49.468;11.200;2023-05-14T02:01:54;9.10;99.90
8008;DHT22;4049;49.468;11.200;2023-05-14T02:04:21;9.10;99.90
8008;DHT22;4049;49.468;11.200;2023-05-14T02:06:48;9.20;99.90
8008;DHT22;4049;49.468;11.200;2023-05-14T02:09:14;9.20;99.90
8008;DHT22;4049;49.468;11.200;2023-05-14T02:11:43;9.20;99.90
8008;DHT22;4049;49.468;11.200;2023-05-14T02:14:09;9.30;99.90
8008;DHT22;4049;49.468;11.200;2023-05-14T02:16:36;9.30;99.90
8008;DHT22;4049;49.468;11.200;2023-05-14T02:19:03;9.30;99.90
8008;DHT22;4049;49.468;11.200;2023-05-14T02:21:30;9.40;99.90
8008;DHT22;4049;49.468;11.200;2023-05-14T02:23:57;9.40;99.90
8008;DHT22;4049;49.468;11.200;2023-05-14T02:26:24;9.40;99.90
8008;DHT22;4049;49.468;11.200;2023-05-14T02:28:52;9.40;99.90
8008;DHT22;4049;49.468;11.200;2023-05-14T02:31:19;9.50;99.90
8008;DHT22;4049;49.468;11.200;2023-05-14T02:33:46;9.40;99.90
8008;DHT22;4049;49.468;11.200;2023-05-14T02:36:13;9.50;99.90
8008;DHT22;4049;49.468;11.200;2023-05-14T02:38:40;9.50;99.90
8008;DHT22;4049;49.468;11.200;2023-05-14T02:41:06;9.50;99.90
8008;DHT22;4049;49.468;11.200;2023-05-14T02:43:33;9.50;99.90
8008;DHT22;4049;49.468;11.200;2023-05-14T02:46:01;9.50;99.90
8008;DHT22;4049;49.468;11.200;2023-05-14T02:48:28;9.50;99.90
8008;DHT22;4049;49.468;11.200;2023-05-14T02:50:55;9.50;99.90
8008;DHT22;4049;49.468;11.200;2023-05-14T02:53:22;9.50;99.90
8008;DHT22;4049;49.468;11.200;2023-05-14T02:55:50;9.60;99.90
8008;DHT22;4049;49.468;11.200;2023-05-14T02:58:16;9.60;99.90
8008;DHT22;4049;49.468;11.200;2023-05-14T03:00:43;9.60;99.90
8008;DHT22;4049;49.468;11.200;2023-05-14T03:03:11;9.60;99.90
8008;DHT22;4049;49.468;11.200;2023-05-14T03:05:38;9.60;99.90
8008;DHT22;4049;49.468;11.200;2023-05-14T03:08:05;9.60;99.90
8008;DHT22;4049;49.468;11.200;2023-05-14T03:10:32;9.60;99.90
8008;DHT22;4049;49.468;11.200;2023-05-14T03:12:59;9.60;99.90
8008;DHT22;4049;49.468;11.200;2023-05-14T03:15:25;9.60;99.90
8008;DHT22;4049;49.468;11.200;2023-05-14T03:17:52;9.70;99.90
8008;DHT22;4049;49.468;11.200;2023-05-14T03:20:22;9.60;99.90
8008;DHT22;4049;49.468;11.200;2023-05-14T03:22:49;9.60;99.90
8008;DHT22;4049;49.468;11.200;2023-05-14T03:25:16;9.70;99.90
8008;DHT22;4049;49.468;11.200;2023-05-14T03:27:43;9.70;99.90
8008;DHT22;4049;49.468;11.200;2023-05-14T03:30:11;9.70;99.90
8008;DHT22;4049;49.468;11.200;2023-05-14T03:32:38;9.70;99.90
8008;DHT22;4049;49.468;11.200;2023-05-14T03:35:06;9.70;99.90
8008;DHT22;4049;49.468;11.200;2023-05-14T03:37:34;9.70;99.90
8008;DHT22;4049;49.468;11.200;2023-05-14T03:40:01;9.70;99.90
8008;DHT22;4049;49.468;11.200;2023-05-14T03:42:28;9.70;99.90
8008;DHT22;4049;49.468;11.200;2023-05-14T03:44:55;9.70;99.90
8008;DHT22;4049;49.468;11.200;2023-05-14T03:47:22;9.70;99.90
8008;DHT22;4049;49.468;11.200;2023-05-14T03:49:49;9.70;99.90
8008;DHT22;4049;49.468;11.200;2023-05-14T03:52:15;9.70;99.90
8008;DHT22;4049;49.468;11.200;2023-05-14T03:54:43;9.80;99.90
8008;DHT22;4049;49.468;11.200;2023-05-14T03:57:12;9.70;99.90
8008;DHT22;4049;49.468;11.200;2023-05-14T03:59:39;9.70;99.90
8008;DHT22;4049;49.468;11.200;2023-05-14T04:02:06;9.70;99.90
8008;DHT22;4049;49.468;11.200;2023-05-14T04:04:33;9.70;99.90
8008;DHT22;4049;49.468;11.200;2023-05-14T04:07:00;9.70;99.90
8008;DHT22;4049;49.468;11.200;2023-05-14T04:09:27;9.70;99.90
8008;DHT22;4049;49.468;11.200;2023-05-14T04:11:55;9.80;99.90
8008;DHT22;4049;49.468;11.200;2023-05-14T04:14:22;9.80;99.90
8008;DHT22;4049;49.468;11.200;2023-05-14T04:16:49;9.80;99.90
8008;DHT22;4049;49.468;11.200;2023-05-14T04:19:16;9.80;99.90
8008;DHT22;4049;49.468;11.200;2023-05-14T04:21:43;9.80;99.90
8008;DHT22;4049;49.468;11.200;2023-05-14T04:24:09;9.80;99.90
8008;DHT22;4049;49.468;11.200;2023-05-14T04:26:36;9.90;99.90
8008;DHT22;4049;49.468;11.200;2023-05-14T04:29:04;9.90;99.90
8008;DHT22;4049;49.468;11.200;2023-05-14T04:31:31;9.90;99.90
8008;DHT22;4049;49.468;11.200;2023-05-14T04:33:58;9.90;99.90
8008;DHT22;4049;49.468;11.200;2023-05-14T04:36:28;9.90;99.90
8008;DHT22;4049;49.468;11.200;2023-05-14T04:38:55;9.90;99.90
8008;DHT22;4049;49.468;11.200;2023-05-14T04:41:22;9.90;99.90
8008;DHT22;4049;49.468;11.200;2023-05-14T04:43:49;10.00;99.90
8008;DHT22;4049;49.468;11.200;2023-05-14T04:46:17;10.00;99.90
8008;DHT22;4049;49.468;11.200;2023-05-14T04:48:44;10.00;99.90
8008;DHT22;4049;49.468;11.200;2023-05-14T04:51:11;10.00;99.90
8008;DHT22;4049;49.468;11.200;2023-05-14T04:53:38;10.10;99.90
8008;DHT22;4049;49.468;11.200;2023-05-14T04:56:05;10.10;99.90
8008;DHT22;4049;49.468;11.200;2023-05-14T04:58:32;10.10;99.90
8008;DHT22;4049;49.468;11.200;2023-05-14T05:00:59;10.10;99.90
8008;DHT22;4049;49.468;11.200;2023-05-14T05:03:27;10.20;99.90
8008;DHT22;4049;49.468;11.200;2023-05-14T05:05:54;10.20;99.90
8008;DHT22;4049;49.468;11.200;2023-05-14T05:08:21;10.20;99.90
8008;DHT22;4049;49.468;11.200;2023-05-14T05:10:47;10.20;99.90
8008;DHT22;4049;49.468;11.200;2023-05-14T05:13:14;10.20;99.90
8008;DHT22;4049;49.468;11.200;2023-05-14T05:15:41;10.20;99.90
8008;DHT22;4049;49.468;11.200;2023-05-14T05:18:08;10.20;99.90
8008;DHT22;4049;49.468;11.200;2023-05-14T05:20:36;10.20;99.90
8008;DHT22;4049;49.468;11.200;2023-05-14T05:23:03;10.30;99.90
8008;DHT22;4049;49.468;11.200;2023-05-14T05:25:30;10.30;99.90
8008;DHT22;4049;49.468;11.200;2023-05-14T05:27:57;10.30;99.90
8008;DHT22;4049;49.468;11.200;2023-05-14T05:30:24;10.30;99.90
8008;DHT22;4049;49.468;11.200;2023-05-14T05:32:50;10.40;99.90
8008;DHT22;4049;49.468;11.200;2023-05-14T05:35:17;10.40;99.90
8008;DHT22;4049;49.468;11.200;2023-05-14T05:37:45;10.40;99.90
8008;DHT22;4049;49.468;11.200;2023-05-14T05:40:12;10.40;99.90
8008;DHT22;4049;49.468;11.200;2023-05-14T05:42:40;10.40;99.90
8008;DHT22;4049;49.468;11.200;2023-05-14T05:45:07;10.40;99.90
8008;DHT22;4049;49.468;11.200;2023-05-14T05:47:34;10.50;99.90
8008;DHT22;4049;49.468;11.200;2023-05-14T05:50:01;10.50;99.90
8008;DHT22;4049;49.468;11.200;2023-05-14T05:52:28;10.50;99.90
8008;DHT22;4049;49.468;11.200;2023-05-14T05:54:56;10.50;99.90
8008;DHT22;4049;49.468;11.200;2023-05-14T05:57:23;10.50;99.90
8008;DHT22;4049;49.468;11.200;2023-05-14T05:59:51;10.50;99.90
8008;DHT22;4049;49.468;11.200;2023-05-14T06:02:18;10.50;99.90
8008;DHT22;4049;49.468;11.200;2023-05-14T06:04:45;10.60;99.90
8008;DHT22;4049;49.468;11.200;2023-05-14T06:07:12;10.60;99.90
8008;DHT22;4049;49.468;11.200;2023-05-14T06:09:39;10.70;99.90
8008;DHT22;4049;49.468;11.200;2023-05-14T06:12:08;10.80;99.90
8008;DHT22;4049;49.468;11.200;2023-05-14T06:14:34;10.80;99.90
8008;DHT22;4049;49.468;11.200;2023-05-14T06:17:01;10.90;99.90
8008;DHT22;4049;49.468;11.200;2023-05-14T06:19:28;10.90;99.90
8008;DHT22;4049;49.468;11.200;2023-05-14T06:21:55;11.00;99.90
8008;DHT22;4049;49.468;11.200;2023-05-14T06:24:21;11.00;99.90
8008;DHT22;4049;49.468;11.200;2023-05-14T06:26:48;11.10;99.90
8008;DHT22;4049;49.468;11.200;2023-05-14T06:29:16;11.10;99.90
8008;DHT22;4049;49.468;11.200;2023-05-14T06:31:45;11.20;99.90
8008;DHT22;4049;49.468;11.200;2023-05-14T06:34:12;11.30;99.90
8008;DHT22;4049;49.468;11.200;2023-05-14T06:36:39;11.30;99.90
8008;DHT22;4049;49.468;11.200;2023-05-14T06:39:05;11.40;99.90
8008;DHT22;4049;49.468;11.200;2023-05-14T06:41:32;11.50;99.90
8008;DHT22;4049;49.468;11.200;2023-05-14T06:43:59;11.60;99.90
8008;DHT22;4049;49.468;11.200;2023-05-14T06:46:27;11.70;99.90
8008;DHT22;4049;49.468;11.200;2023-05-14T06:48:54;11.80;99.90
8008;DHT22;4049;49.468;11.200;2023-05-14T06:51:21;11.90;99.90
8008;DHT22;4049;49.468;11.200;2023-05-14T06:53:48;12.00;99.90
8008;DHT22;4049;49.468;11.200;2023-05-14T06:56:15;12.10;99.90
8008;DHT22;4049;49.468;11.200;2023-05-14T06:58:42;12.20;99.90
8008;DHT22;4049;49.468;11.200;2023-05-14T07:01:09;12.30;99.90
8008;DHT22;4049;49.468;11.200;2023-05-14T07:03:37;12.40;99.90
8008;DHT22;4049;49.468;11.200;2023-05-14T07:06:04;12.50;99.90
8008;DHT22;4049;49.468;11.200;2023-05-14T07:08:32;12.60;99.90
8008;DHT22;4049;49.468;11.200;2023-05-14T07:10:59;12.70;99.90
8008;DHT22;4049;49.468;11.200;2023-05-14T07:13:25;12.80;99.90
8008;DHT22;4049;49.468;11.200;2023-05-14T07:15:52;12.90;99.90
8008;DHT22;4049;49.468;11.200;2023-05-14T07:18:20;13.00;99.90
8008;DHT22;4049;49.468;11.200;2023-05-14T07:20:49;13.00;99.90
8008;DHT22;4049;49.468;11.200;2023-05-14T07:23:15;13.20;99.90
8008;DHT22;4049;49.468;11.200;2023-05-14T07:25:42;13.20;99.90
8008;DHT22;4049;49.468;11.200;2023-05-14T07:28:09;13.40;99.90
8008;DHT22;4049;49.468;11.200;2023-05-14T07:30:36;13.50;99.90
8008;DHT22;4049;49.468;11.200;2023-05-14T07:33:03;13.60;99.90
8008;DHT22;4049;49.468;11.200;2023-05-14T07:35:30;13.60;99.90
8008;DHT22;4049;49.468;11.200;2023-05-14T07:37:58;13.60;99.90
8008;DHT22;4049;49.468;11.200;2023-05-14T07:40:25;13.60;99.90
8008;DHT22;4049;49.468;11.200;2023-05-14T07:42:51;13.70;99.90
8008;DHT22;4049;49.468;11.200;2023-05-14T07:45:18;13.70;99.90
8008;DHT22;4049;49.468;11.200;2023-05-14T07:47:45;13.80;99.90
8008;DHT22;4049;49.468;11.200;2023-05-14T07:50:16;13.80;99.90
8008;DHT22;4049;49.468;11.200;2023-05-14T07:52:43;13.90;99.90
8008;DHT22;4049;49.468;11.200;2023-05-14T07:55:11;14.00;99.90
8008;DHT22;4049;49.468;11.200;2023-05-14T07:57:39;14.10;99.90
8008;DHT22;4049;49.468;11.200;2023-05-14T08:00:06;14.20;99.90
8008;DHT22;4049;49.468;11.200;2023-05-14T08:02:33;14.20;99.90
8008;DHT22;4049;49.468;11.200;2023-05-14T08:05:00;14.30;99.90
8008;DHT22;4049;49.468;11.200;2023-05-14T08:07:27;14.30;99.90
8008;DHT22;4049;49.468;11.200;2023-05-14T08:09:54;14.30;99.90
8008;DHT22;4049;49.468;11.200;2023-05-14T08:12:23;14.30;99.90
8008;DHT22;4049;49.468;11.200;2023-05-14T08:14:49;14.20;99.90
8008;DHT22;4049;49.468;11.200;2023-05-14T08:17:17;14.30;99.90
8008;DHT22;4049;49.468;11.200;2023-05-14T08:19:44;14.30;99.90
8008;DHT22;4049;49.468;11.200;2023-05-14T08:22:11;14.30;99.90
8008;DHT22;4049;49.468;11.200;2023-05-14T08:24:38;14.30;99.90
8008;DHT22;4049;49.468;11.200;2023-05-14T08:27:05;14.30;99.90
8008;DHT22;4049;49.468;11.200;2023-05-14T08:29:33;14.30;99.90
8008;DHT22;4049;49.468;11.200;2023-05-14T08:32:02;14.40;99.90
8008;DHT22;4049;49.468;11.200;2023-05-14T08:34:29;14.40;99.90
8008;DHT22;4049;49.468;11.200;2023-05-14T08:36:56;14.50;99.90
8008;DHT22;4049;49.468;11.200;2023-05-14T08:39:24;14.50;99.90
8008;DHT22;4049;49.468;11.200;2023-05-14T08:41:51;14.50;99.90
8008;DHT22;4049;49.468;11.200;2023-05-14T08:44:19;14.60;99.90
8008;DHT22;4049;49.468;11.200;2023-05-14T08:46:49;14.70;99.90
8008;DHT22;4049;49.468;11.200;2023-05-14T08:49:36;14.80;99.90
8008;DHT22;4049;49.468;11.200;2023-05-14T08:52:05;14.90;99.90
8008;DHT22;4049;49.468;11.200;2023-05-14T08:54:33;15.00;99.90
8008;DHT22;4049;49.468;11.200;2023-05-14T08:57:00;15.10;99.90
8008;DHT22;4049;49.468;11.200;2023-05-14T08:59:28;15.20;99.90
8008;DHT22;4049;49.468;11.200;2023-05-14T09:02:00;15.20;99.90
8008;DHT22;4049;49.468;11.200;2023-05-14T09:04:28;15.30;99.90
8008;DHT22;4049;49.468;11.200;2023-05-14T09:06:59;15.30;99.90
8008;DHT22;4049;49.468;11.200;2023-05-14T09:09:27;15.30;99.90
8008;DHT22;4049;49.468;11.200;2023-05-14T09:11:54;15.30;99.90
8008;DHT22;4049;49.468;11.200;2023-05-14T09:14:21;15.30;99.90
8008;DHT22;4049;49.468;11.200;2023-05-14T09:16:49;15.20;99.90
8008;DHT22;4049;49.468;11.200;2023-05-14T09:19:18;15.20;99.90
8008;DHT22;4049;49.468;11.200;2023-05-14T09:21:47;15.20;99.90
8008;DHT22;4049;49.468;11.200;2023-05-14T09:24:18;15.10;99.90
8008;DHT22;4049;49.468;11.200;2023-05-14T09:26:49;15.10;99.90
8008;DHT22;4049;49.468;11.200;2023-05-14T09:29:16;15.00;99.90
8008;DHT22;4049;49.468;11.200;2023-05-14T09:31:43;14.90;99.90
8008;DHT22;4049;49.468;11.200;2023-05-14T09:34:10;14.90;99.90
8008;DHT22;4049;49.468;11.200;2023-05-14T09:36:39;14.90;99.90
8008;DHT22;4049;49.468;11.200;2023-05-14T09:39:06;14.90;99.90
8008;DHT22;4049;49.468;11.200;2023-05-14T09:41:33;15.00;99.90
8008;DHT22;4049;49.468;11.200;2023-05-14T09:44:00;15.10;99.90
8008;DHT22;4049;49.468;11.200;2023-05-14T09:46:27;15.30;99.90
8008;DHT22;4049;49.468;11.200;2023-05-14T09:48:56;15.50;99.90
8008;DHT22;4049;49.468;11.200;2023-05-14T09:51:23;15.60;99.90
8008;DHT22;4049;49.468;11.200;2023-05-14T09:53:52;15.80;99.90
8008;DHT22;4049;49.468;11.200;2023-05-14T09:56:20;15.90;99.90
8008;DHT22;4049;49.468;11.200;2023-05-14T09:58:48;16.00;99.90
8008;DHT22;4049;49.468;11.200;2023-05-14T10:01:18;16.10;99.90
8008;DHT22;4049;49.468;11.200;2023-05-14T10:03:45;16.20;99.90
8008;DHT22;4049;49.468;11.200;2023-05-14T10:06:15;16.30;99.90
8008;DHT22;4049;49.468;11.200;2023-05-14T10:08:45;16.60;99.90
8008;DHT22;4049;49.468;11.200;2023-05-14T10:11:18;16.90;99.90
8008;DHT22;4049;49.468;11.200;2023-05-14T10:13:52;17.00;99.90
8008;DHT22;4049;49.468;11.200;2023-05-14T10:16:25;17.10;99.90
8008;DHT22;4049;49.468;11.200;2023-05-14T10:18:56;17.30;99.90
8008;DHT22;4049;49.468;11.200;2023-05-14T10:21:29;17.50;99.90
8008;DHT22;4049;49.468;11.200;2023-05-14T10:23:57;17.60;99.90
8008;DHT22;4049;49.468;11.200;2023-05-14T10:26:26;17.60;99.90
8008;DHT22;4049;49.468;11.200;2023-05-14T10:28:53;17.60;99.90
8008;DHT22;4049;49.468;11.200;2023-05-14T10:31:22;17.60;99.90
8008;DHT22;4049;49.468;11.200;2023-05-14T10:33:49;17.50;99.90
8008;DHT22;4049;49.468;11.200;2023-05-14T10:36:17;17.50;99.90
8008;DHT22;4049;49.468;11.200;2023-05-14T10:38:44;17.50;99.90
8008;DHT22;4049;49.468;11.200;2023-05-14T10:41:13;17.50;99.90
8008;DHT22;4049;49.468;11.200;2023-05-14T10:43:43;17.50;99.90
8008;DHT22;4049;49.468;11.200;2023-05-14T10:46:12;17.50;99.90
8008;DHT22;4049;49.468;11.200;2023-05-14T10:48:42;17.60;99.90
8008;DHT22;4049;49.468;11.200;2023-05-14T10:51:10;17.60;99.90
8008;DHT22;4049;49.468;11.200;2023-05-14T10:53:38;17.80;99.90
8008;DHT22;4049;49.468;11.200;2023-05-14T10:56:06;17.80;99.90
8008;DHT22;4049;49.468;11.200;2023-05-14T10:58:36;17.80;99.90
8008;DHT22;4049;49.468;11.200;2023-05-14T11:01:06;17.80;99.90
8008;DHT22;4049;49.468;11.200;2023-05-14T11:03:38;17.90;99.90
8008;DHT22;4049;49.468;11.200;2023-05-14T11:06:06;17.90;99.90
8008;DHT22;4049;49.468;11.200;2023-05-14T11:08:34;17.90;99.90
8008;DHT22;4049;49.468;11.200;2023-05-14T11:11:01;17.80;99.90
8008;DHT22;4049;49.468;11.200;2023-05-14T11:13:28;17.80;99.90
8008;DHT22;4049;49.468;11.200;2023-05-14T11:15:55;17.80;99.90
8008;DHT22;4049;49.468;11.200;2023-05-14T11:18:28;17.80;99.90
8008;DHT22;4049;49.468;11.200;2023-05-14T11:20:57;17.70;99.90
8008;DHT22;4049;49.468;11.200;2023-05-14T11:23:24;17.70;99.90
8008;DHT22;4049;49.468;11.200;2023-05-14T11:25:52;17.60;99.90
8008;DHT22;4049;49.468;11.200;2023-05-14T11:28:20;17.50;99.90
8008;DHT22;4049;49.468;11.200;2023-05-14T11:30:47;17.50;99.90
8008;DHT22;4049;49.468;11.200;2023-05-14T11:33:15;17.40;99.90
8008;DHT22;4049;49.468;11.200;2023-05-14T11:35:43;17.30;99.90
8008;DHT22;4049;49.468;11.200;2023-05-14T11:38:14;17.20;99.90
8008;DHT22;4049;49.468;11.200;2023-05-14T11:40:42;17.10;99.90
8008;DHT22;4049;49.468;11.200;2023-05-14T11:43:08;17.10;99.90
8008;DHT22;4049;49.468;11.200;2023-05-14T11:45:35;17.10;99.90
8008;DHT22;4049;49.468;11.200;2023-05-14T11:48:11;17.10;99.90
8008;DHT22;4049;49.468;11.200;2023-05-14T11:50:39;17.10;99.90
8008;DHT22;4049;49.468;11.200;2023-05-14T11:53:07;17.10;99.90
8008;DHT22;4049;49.468;11.200;2023-05-14T11:55:34;17.10;99.90
8008;DHT22;4049;49.468;11.200;2023-05-14T11:58:01;17.10;99.90
8008;DHT22;4049;49.468;11.200;2023-05-14T12:00:28;17.10;99.90
8008;DHT22;4049;49.468;11.200;2023-05-14T12:02:56;17.00;99.90
8008;DHT22;4049;49.468;11.200;2023-05-14T12:05:26;17.10;99.90
8008;DHT22;4049;49.468;11.200;2023-05-14T12:07:53;17.00;99.90
8008;DHT22;4049;49.468;11.200;2023-05-14T12:10:24;17.10;99.90
8008;DHT22;4049;49.468;11.200;2023-05-14T12:12:51;17.10;99.90
8008;DHT22;4049;49.468;11.200;2023-05-14T12:15:18;17.10;99.90
8008;DHT22;4049;49.468;11.200;2023-05-14T12:17:49;17.10;99.90
8008;DHT22;4049;49.468;11.200;2023-05-14T12:20:16;17.20;99.90
8008;DHT22;4049;49.468;11.200;2023-05-14T12:22:43;17.20;99.90
8008;DHT22;4049;49.468;11.200;2023-05-14T12:25:11;17.20;99.90
8008;DHT22;4049;49.468;11.200;2023-05-14T12:27:43;17.30;99.90
8008;DHT22;4049;49.468;11.200;2023-05-14T12:30:11;17.40;99.90
8008;DHT22;4049;49.468;11.200;2023-05-14T12:32:39;17.40;99.90
8008;DHT22;4049;49.468;11.200;2023-05-14T12:35:06;17.50;99.90
8008;DHT22;4049;49.468;11.200;2023-05-14T12:37:34;17.50;99.90
8008;DHT22;4049;49.468;11.200;2023-05-14T12:40:02;17.50;99.90
8008;DHT22;4049;49.468;11.200;2023-05-14T12:42:33;17.60;99.90
8008;DHT22;4049;49.468;11.200;2023-05-14T12:45:01;17.70;99.90
8008;DHT22;4049;49.468;11.200;2023-05-14T12:47:31;17.70;99.90
8008;DHT22;4049;49.468;11.200;2023-05-14T12:49:58;17.70;99.90
8008;DHT22;4049;49.468;11.200;2023-05-14T12:52:25;17.70;99.90
8008;DHT22;4049;49.468;11.200;2023-05-14T12:54:52;17.70;99.90
8008;DHT22;4049;49.468;11.200;2023-05-14T12:57:19;17.80;99.90
8008;DHT22;4049;49.468;11.200;2023-05-14T12:59:46;17.80;99.90
8008;DHT22;4049;49.468;11.200;2023-05-14T13:02:14;17.80;99.90
8008;DHT22;4049;49.468;11.200;2023-05-14T13:04:42;17.80;99.90
8008;DHT22;4049;49.468;11.200;2023-05-14T13:07:09;17.80;99.90
8008;DHT22;4049;49.468;11.200;2023-05-14T13:09:36;17.80;99.90
8008;DHT22;4049;49.468;11.200;2023-05-14T13:12:03;17.90;99.90
8008;DHT22;4049;49.468;11.200;2023-05-14T13:14:30;18.00;99.90
8008;DHT22;4049;49.468;11.200;2023-05-14T13:16:57;18.00;99.90
8008;DHT22;4049;49.468;11.200;2023-05-14T13:19:25;18.10;99.90
8008;DHT22;4049;49.468;11.200;2023-05-14T13:21:52;18.10;99.90
8008;DHT22;4049;49.468;11.200;2023-05-14T13:24:18;18.10;99.90
8008;DHT22;4049;49.468;11.200;2023-05-14T13:26:45;18.20;99.90
8008;DHT22;4049;49.468;11.200;2023-05-14T13:29:12;18.30;99.90
8008;DHT22;4049;49.468;11.200;2023-05-14T13:31:39;18.30;99.90
8008;DHT22;4049;49.468;11.200;2023-05-14T13:34:06;18.30;99.90
8008;DHT22;4049;49.468;11.200;2023-05-14T13:36:36;18.30;99.90
8008;DHT22;4049;49.468;11.200;2023-05-14T13:39:04;18.30;99.90
8008;DHT22;4049;49.468;11.200;2023-05-14T13:41:31;18.30;99.90
8008;DHT22;4049;49.468;11.200;2023-05-14T13:43:59;18.50;99.90
8008;DHT22;4049;49.468;11.200;2023-05-14T13:46:26;18.80;99.90
8008;DHT22;4049;49.468;11.200;2023-05-14T13:48:53;19.00;99.90
8008;DHT22;4049;49.468;11.200;2023-05-14T13:51:20;19.20;99.90
8008;DHT22;4049;49.468;11.200;2023-05-14T13:53:48;19.50;99.90
8008;DHT22;4049;49.468;11.200;2023-05-14T13:56:15;19.60;99.90
8008;DHT22;4049;49.468;11.200;2023-05-14T13:58:42;19.80;99.90
8008;DHT22;4049;49.468;11.200;2023-05-14T14:01:09;19.90;99.90
8008;DHT22;4049;49.468;11.200;2023-05-14T14:03:36;19.90;99.90
8008;DHT22;4049;49.468;11.200;2023-05-14T14:06:03;19.80;99.90
8008;DHT22;4049;49.468;11.200;2023-05-14T14:08:30;19.60;99.90
8008;DHT22;4049;49.468;11.200;2023-05-14T14:10:58;19.60;99.90
8008;DHT22;4049;49.468;11.200;2023-05-14T14:13:25;19.50;99.90
8008;DHT22;4049;49.468;11.200;2023-05-14T14:15:53;19.40;99.90
8008;DHT22;4049;49.468;11.200;2023-05-14T14:18:21;19.30;99.90
8008;DHT22;4049;49.468;11.200;2023-05-14T14:20:48;19.20;99.90
8008;DHT22;4049;49.468;11.200;2023-05-14T14:23:15;19.00;99.90
8008;DHT22;4049;49.468;11.200;2023-05-14T14:25:42;18.90;99.90
8008;DHT22;4049;49.468;11.200;2023-05-14T14:28:10;18.80;99.90
8008;DHT22;4049;49.468;11.200;2023-05-14T14:30:37;18.70;99.90
8008;DHT22;4049;49.468;11.200;2023-05-14T14:33:04;18.60;99.90
8008;DHT22;4049;49.468;11.200;2023-05-14T14:35:30;18.50;99.90
8008;DHT22;4049;49.468;11.200;2023-05-14T14:37:59;18.40;99.90
8008;DHT22;4049;49.468;11.200;2023-05-14T14:40:26;18.40;99.90
8008;DHT22;4049;49.468;11.200;2023-05-14T14:42:54;18.40;99.90
8008;DHT22;4049;49.468;11.200;2023-05-14T14:45:22;18.40;99.90
8008;DHT22;4049;49.468;11.200;2023-05-14T14:47:49;18.40;99.90
8008;DHT22;4049;49.468;11.200;2023-05-14T14:50:16;18.40;99.90
8008;DHT22;4049;49.468;11.200;2023-05-14T14:52:43;18.40;99.90
8008;DHT22;4049;49.468;11.200;2023-05-14T14:55:12;18.50;99.90
8008;DHT22;4049;49.468;11.200;2023-05-14T14:57:39;18.60;99.90
8008;DHT22;4049;49.468;11.200;2023-05-14T15:00:06;18.60;99.90
8008;DHT22;4049;49.468;11.200;2023-05-14T15:02:36;18.60;99.90
8008;DHT22;4049;49.468;11.200;2023-05-14T15:05:06;18.70;99.90
8008;DHT22;4049;49.468;11.200;2023-05-14T15:07:33;18.80;99.90
8008;DHT22;4049;49.468;11.200;2023-05-14T15:10:00;18.90;99.90
8008;DHT22;4049;49.468;11.200;2023-05-14T15:12:27;19.00;99.90
8008;DHT22;4049;49.468;11.200;2023-05-14T15:14:54;19.00;99.90
8008;DHT22;4049;49.468;11.200;2023-05-14T15:17:21;19.00;99.90
8008;DHT22;4049;49.468;11.200;2023-05-14T15:19:49;18.90;99.90
8008;DHT22;4049;49.468;11.200;2023-05-14T15:22:16;18.90;99.90
8008;DHT22;4049;49.468;11.200;2023-05-14T15:24:43;18.80;99.90
8008;DHT22;4049;49.468;11.200;2023-05-14T15:27:10;18.80;99.90
8008;DHT22;4049;49.468;11.200;2023-05-14T15:29:36;18.80;99.90
8008;DHT22;4049;49.468;11.200;2023-05-14T15:32:04;18.60;99.90
8008;DHT22;4049;49.468;11.200;2023-05-14T15:34:31;18.60;99.90
8008;DHT22;4049;49.468;11.200;2023-05-14T15:36:59;18.50;99.90
8008;DHT22;4049;49.468;11.200;2023-05-14T15:39:26;18.50;99.90
8008;DHT22;4049;49.468;11.200;2023-05-14T15:41:53;18.40;99.90
8008;DHT22;4049;49.468;11.200;2023-05-14T15:44:20;18.40;99.90
8008;DHT22;4049;49.468;11.200;2023-05-14T15:46:47;18.40;99.90
8008;DHT22;4049;49.468;11.200;2023-05-14T15:49:14;18.40;99.90
8008;DHT22;4049;49.468;11.200;2023-05-14T15:51:41;18.40;99.90